sensor_id;sensor_type;location;lat;lon;timestamp;pressure;altitude;pressure_sealevel;temperature;humidity
43683;BME280;29285;52.128;21.060;2024-03-22T00:01:52;100422.15;;;7.80;100.00
43683;BME280;29285;52.128;21.060;2024-03-22T00:06:53;100422.29;;;7.87;100.00
43683;BME280;29285;52.128;21.060;2024-03-22T00:11:54;100414.85;;;7.91;100.00
43683;BME280;29285;52.128;21.060;2024-03-22T00:16:55;100409.82;;;7.94;100.00
43683;BME280;29285;52.128;21.060;2024-03-22T00:21:56;100402.23;;;7.94;100.00
43683;BME280;29285;52.128;21.060;2024-03-22T00:26:58;100396.00;;;7.96;100.00
43683;BME280;29285;52.128;21.060;2024-03-22T00:31:58;100396.67;;;8.00;100.00
43683;BME280;29285;52.128;21.060;2024-03-22T00:37:00;100392.33;;;8.05;100.00
43683;BME280;29285;52.128;21.060;2024-03-22T00:42:01;100387.64;;;8.10;100.00
43683;BME280;29285;52.128;21.060;2024-03-22T00:47:02;100387.45;;;8.16;100.00
43683;BME280;29285;52.128;21.060;2024-03-22T00:52:04;100384.13;;;8.20;100.00
43683;BME280;29285;52.128;21.060;2024-03-22T00:57:05;100384.47;;;8.23;100.00
43683;BME280;29285;52.128;21.060;2024-03-22T01:02:06;100391.30;;;8.37;100.00
43683;BME280;29285;52.128;21.060;2024-03-22T01:07:07;100395.55;;;8.51;100.00
43683;BME280;29285;52.128;21.060;2024-03-22T01:12:07;100393.09;;;8.59;100.00
43683;BME280;29285;52.128;21.060;2024-03-22T01:17:08;100384.08;;;8.64;100.00
43683;BME280;29285;52.128;21.060;2024-03-22T01:22:09;100383.52;;;8.68;100.00
43683;BME280;29285;52.128;21.060;2024-03-22T01:27:11;100376.73;;;8.74;100.00
43683;BME280;29285;52.128;21.060;2024-03-22T01:32:12;100378.08;;;8.79;100.00
43683;BME280;29285;52.128;21.060;2024-03-22T01:37:14;100377.11;;;8.89;100.00
43683;BME280;29285;52.128;21.060;2024-03-22T01:42:15;100367.73;;;8.94;100.00
43683;BME280;29285;52.128;21.060;2024-03-22T01:47:16;100368.23;;;8.98;100.00
43683;BME280;29285;52.128;21.060;2024-03-22T01:52:17;100369.41;;;8.99;100.00
43683;BME280;29285;52.128;21.060;2024-03-22T01:57:19;100368.71;;;9.01;100.00
43683;BME280;29285;52.128;21.060;2024-03-22T02:02:20;100371.30;;;9.03;100.00
43683;BME280;29285;52.128;21.060;2024-03-22T02:07:21;100365.06;;;9.03;100.00
43683;BME280;29285;52.128;21.060;2024-03-22T02:12:22;100363.48;;;9.06;100.00
43683;BME280;29285;52.128;21.060;2024-03-22T02:17:23;100362.95;;;9.07;100.00
43683;BME280;29285;52.128;21.060;2024-03-22T02:22:24;100363.14;;;9.06;100.00
43683;BME280;29285;52.128;21.060;2024-03-22T02:27:25;100356.39;;;9.07;100.00
43683;BME280;29285;52.128;21.060;2024-03-22T02:32:26;100361.89;;;9.09;100.00
43683;BME280;29285;52.128;21.060;2024-03-22T02:37:28;100364.13;;;9.11;100.00
43683;BME280;29285;52.128;21.060;2024-03-22T02:42:28;100364.46;;;9.12;100.00
43683;BME280;29285;52.128;21.060;2024-03-22T02:47:29;100358.91;;;9.14;100.00
43683;BME280;29285;52.128;21.060;2024-03-22T02:52:30;100351.83;;;9.12;100.00
43683;BME280;29285;52.128;21.060;2024-03-22T02:57:31;100352.70;;;9.11;100.00
43683;BME280;29285;52.128;21.060;2024-03-22T03:02:32;100353.39;;;9.12;100.00
43683;BME280;29285;52.128;21.060;2024-03-22T03:07:34;100352.15;;;9.14;100.00
43683;BME280;29285;52.128;21.060;2024-03-22T03:12:35;100346.41;;;9.17;100.00
43683;BME280;29285;52.128;21.060;2024-03-22T03:17:36;100347.96;;;9.18;100.00
43683;BME280;29285;52.128;21.060;2024-03-22T03:22:37;100346.21;;;9.20;100.00
43683;BME280;29285;52.128;21.060;2024-03-22T03:27:38;100343.73;;;9.24;100.00
43683;BME280;29285;52.128;21.060;2024-03-22T03:32:39;100342.35;;;9.25;100.00
43683;BME280;29285;52.128;21.060;2024-03-22T03:37:40;100339.55;;;9.29;100.00
43683;BME280;29285;52.128;21.060;2024-03-22T03:42:41;100337.60;;;9.32;100.00
43683;BME280;29285;52.128;21.060;2024-03-22T03:47:42;100341.58;;;9.34;100.00
43683;BME280;29285;52.128;21.060;2024-03-22T03:52:43;100344.88;;;9.32;100.00
43683;BME280;29285;52.128;21.060;2024-03-22T03:57:44;100350.10;;;9.29;100.00
43683;BME280;29285;52.128;21.060;2024-03-22T04:02:45;100353.61;;;9.23;100.00
43683;BME280;29285;52.128;21.060;2024-03-22T04:07:47;100353.64;;;9.22;100.00
43683;BME280;29285;52.128;21.060;2024-03-22T04:12:48;100358.50;;;9.21;100.00
43683;BME280;29285;52.128;21.060;2024-03-22T04:17:50;100364.41;;;9.17;100.00
43683;BME280;29285;52.128;21.060;2024-03-22T04:22:51;100381.29;;;9.08;100.00
43683;BME280;29285;52.128;21.060;2024-03-22T04:27:53;100385.66;;;9.03;100.00
43683;BME280;29285;52.128;21.060;2024-03-22T04:32:53;100387.52;;;8.89;100.00
43683;BME280;29285;52.128;21.060;2024-03-22T04:37:55;100392.09;;;8.78;100.00
43683;BME280;29285;52.128;21.060;2024-03-22T04:42:56;100397.00;;;8.69;100.00
43683;BME280;29285;52.128;21.060;2024-03-22T04:47:57;100401.73;;;8.62;100.00
43683;BME280;29285;52.128;21.060;2024-03-22T04:52:58;100401.75;;;8.57;100.00
43683;BME280;29285;52.128;21.060;2024-03-22T04:57:59;100401.41;;;8.55;100.00
43683;BME280;29285;52.128;21.060;2024-03-22T05:03:01;100406.39;;;8.59;100.00
43683;BME280;29285;52.128;21.060;2024-03-22T05:08:02;100403.11;;;8.63;100.00
43683;BME280;29285;52.128;21.060;2024-03-22T05:13:04;100405.53;;;8.62;100.00
43683;BME280;29285;52.128;21.060;2024-03-22T05:18:05;100411.75;;;8.61;100.00
43683;BME280;29285;52.128;21.060;2024-03-22T05:23:06;100415.58;;;8.60;100.00
43683;BME280;29285;52.128;21.060;2024-03-22T05:28:07;100417.46;;;8.60;100.00
43683;BME280;29285;52.128;21.060;2024-03-22T05:33:08;100421.08;;;8.64;100.00
43683;BME280;29285;52.128;21.060;2024-03-22T05:38:10;100416.72;;;8.69;100.00
43683;BME280;29285;52.128;21.060;2024-03-22T05:43:11;100416.50;;;8.76;100.00
43683;BME280;29285;52.128;21.060;2024-03-22T05:48:12;100411.78;;;8.83;100.00
43683;BME280;29285;52.128;21.060;2024-03-22T05:53:13;100414.88;;;8.84;100.00
43683;BME280;29285;52.128;21.060;2024-03-22T05:58:14;100415.90;;;8.86;100.00
43683;BME280;29285;52.128;21.060;2024-03-22T06:03:15;100416.59;;;8.85;100.00
43683;BME280;29285;52.128;21.060;2024-03-22T06:08:17;100417.29;;;8.87;100.00
43683;BME280;29285;52.128;21.060;2024-03-22T06:13:20;100413.77;;;8.93;100.00
43683;BME280;29285;52.128;21.060;2024-03-22T06:18:21;100409.94;;;8.96;100.00
43683;BME280;29285;52.128;21.060;2024-03-22T06:23:23;100404.55;;;9.00;100.00
43683;BME280;29285;52.128;21.060;2024-03-22T06:28:27;100413.15;;;9.06;100.00
43683;BME280;29285;52.128;21.060;2024-03-22T06:33:28;100410.19;;;9.09;100.00
43683;BME280;29285;52.128;21.060;2024-03-22T06:38:30;100414.48;;;9.14;100.00
43683;BME280;29285;52.128;21.060;2024-03-22T06:43:30;100416.33;;;9.17;100.00
43683;BME280;29285;52.128;21.060;2024-03-22T06:48:31;100415.81;;;9.19;100.00
43683;BME280;29285;52.128;21.060;2024-03-22T06:53:33;100413.90;;;9.19;100.00
43683;BME280;29285;52.128;21.060;2024-03-22T06:58:38;100420.48;;;9.20;100.00
43683;BME280;29285;52.128;21.060;2024-03-22T07:03:39;100414.24;;;9.20;100.00
43683;BME280;29285;52.128;21.060;2024-03-22T07:08:40;100415.32;;;9.15;100.00
43683;BME280;29285;52.128;21.060;2024-03-22T07:13:42;100415.40;;;9.07;100.00
43683;BME280;29285;52.128;21.060;2024-03-22T07:18:43;100420.08;;;9.05;100.00
43683;BME280;29285;52.128;21.060;2024-03-22T07:23:44;100415.92;;;9.05;100.00
43683;BME280;29285;52.128;21.060;2024-03-22T07:28:45;100417.90;;;8.95;100.00
43683;BME280;29285;52.128;21.060;2024-03-22T07:33:46;100412.52;;;8.98;100.00
43683;BME280;29285;52.128;21.060;2024-03-22T07:38:47;100412.30;;;9.03;100.00
43683;BME280;29285;52.128;21.060;2024-03-22T07:43:49;100413.94;;;8.94;100.00
43683;BME280;29285;52.128;21.060;2024-03-22T07:48:51;100415.52;;;8.90;100.00
43683;BME280;29285;52.128;21.060;2024-03-22T07:53:52;100410.55;;;8.86;100.00
43683;BME280;29285;52.128;21.060;2024-03-22T07:58:53;100409.23;;;8.78;100.00
43683;BME280;29285;52.128;21.060;2024-03-22T08:03:54;100411.33;;;8.74;100.00
43683;BME280;29285;52.128;21.060;2024-03-22T08:08:55;100410.73;;;8.83;100.00
43683;BME280;29285;52.128;21.060;2024-03-22T08:13:56;100404.25;;;8.95;100.00
43683;BME280;29285;52.128;21.060;2024-03-22T08:19:03;100399.73;;;8.97;100.00
43683;BME280;29285;52.128;21.060;2024-03-22T08:24:04;100399.25;;;8.91;100.00
43683;BME280;29285;52.128;21.060;2024-03-22T08:29:05;100397.16;;;8.93;100.00
43683;BME280;29285;52.128;21.060;2024-03-22T08:34:08;100394.72;;;8.95;100.00
43683;BME280;29285;52.128;21.060;2024-03-22T08:39:09;100390.39;;;8.96;100.00
43683;BME280;29285;52.128;21.060;2024-03-22T08:44:11;100390.27;;;9.08;100.00
43683;BME280;29285;52.128;21.060;2024-03-22T08:49:12;100392.48;;;9.15;100.00
43683;BME280;29285;52.128;21.060;2024-03-22T08:54:13;100399.17;;;9.21;100.00
43683;BME280;29285;52.128;21.060;2024-03-22T08:59:14;100393.23;;;9.26;100.00
43683;BME280;29285;52.128;21.060;2024-03-22T09:04:15;100390.41;;;9.32;100.00
43683;BME280;29285;52.128;21.060;2024-03-22T09:09:17;100392.69;;;9.30;100.00
43683;BME280;29285;52.128;21.060;2024-03-22T09:14:18;100390.58;;;9.32;100.00
43683;BME280;29285;52.128;21.060;2024-03-22T09:19:19;100383.93;;;9.39;100.00
43683;BME280;29285;52.128;21.060;2024-03-22T09:24:20;100390.55;;;9.34;100.00
43683;BME280;29285;52.128;21.060;2024-03-22T09:29:21;100384.58;;;9.26;100.00
43683;BME280;29285;52.128;21.060;2024-03-22T09:34:22;100385.64;;;9.23;100.00
43683;BME280;29285;52.128;21.060;2024-03-22T09:39:23;100379.30;;;9.18;100.00
43683;BME280;29285;52.128;21.060;2024-03-22T09:44:27;100371.48;;;9.02;100.00
43683;BME280;29285;52.128;21.060;2024-03-22T09:49:28;100371.73;;;8.91;100.00
43683;BME280;29285;52.128;21.060;2024-03-22T09:54:29;100371.32;;;8.79;100.00
43683;BME280;29285;52.128;21.060;2024-03-22T09:59:31;100371.86;;;8.79;100.00
43683;BME280;29285;52.128;21.060;2024-03-22T10:04:32;100366.66;;;8.77;100.00
43683;BME280;29285;52.128;21.060;2024-03-22T10:09:33;100363.55;;;8.78;100.00
43683;BME280;29285;52.128;21.060;2024-03-22T10:14:35;100357.52;;;8.73;100.00
43683;BME280;29285;52.128;21.060;2024-03-22T10:19:37;100354.31;;;8.85;100.00
43683;BME280;29285;52.128;21.060;2024-03-22T10:24:38;100347.27;;;9.00;100.00
43683;BME280;29285;52.128;21.060;2024-03-22T10:29:40;100341.06;;;8.97;100.00
43683;BME280;29285;52.128;21.060;2024-03-22T10:34:41;100335.84;;;8.82;100.00
43683;BME280;29285;52.128;21.060;2024-03-22T10:39:43;100332.08;;;8.78;100.00
43683;BME280;29285;52.128;21.060;2024-03-22T10:44:46;100327.79;;;8.72;100.00
43683;BME280;29285;52.128;21.060;2024-03-22T10:49:48;100328.13;;;8.73;100.00
43683;BME280;29285;52.128;21.060;2024-03-22T10:54:49;100323.52;;;8.84;100.00
43683;BME280;29285;52.128;21.060;2024-03-22T10:59:54;100315.55;;;9.05;100.00
43683;BME280;29285;52.128;21.060;2024-03-22T11:04:58;100309.54;;;9.17;100.00
43683;BME280;29285;52.128;21.060;2024-03-22T11:10:03;100305.63;;;9.27;100.00
43683;BME280;29285;52.128;21.060;2024-03-22T11:15:08;100299.55;;;9.27;100.00
43683;BME280;29285;52.128;21.060;2024-03-22T11:20:10;100290.68;;;9.32;100.00
43683;BME280;29285;52.128;21.060;2024-03-22T11:25:12;100285.52;;;9.30;100.00
43683;BME280;29285;52.128;21.060;2024-03-22T11:30:15;100278.70;;;9.35;100.00
43683;BME280;29285;52.128;21.060;2024-03-22T11:35:16;100282.31;;;9.37;100.00
43683;BME280;29285;52.128;21.060;2024-03-22T11:40:18;100278.98;;;9.40;100.00
43683;BME280;29285;52.128;21.060;2024-03-22T11:45:19;100274.78;;;9.45;100.00
43683;BME280;29285;52.128;21.060;2024-03-22T11:50:20;100270.26;;;9.47;100.00
43683;BME280;29285;52.128;21.060;2024-03-22T11:55:21;100264.41;;;9.44;100.00
43683;BME280;29285;52.128;21.060;2024-03-22T12:00:22;100263.10;;;9.51;100.00
43683;BME280;29285;52.128;21.060;2024-03-22T12:05:25;100262.77;;;9.62;100.00
43683;BME280;29285;52.128;21.060;2024-03-22T12:10:27;100263.71;;;9.71;100.00
43683;BME280;29285;52.128;21.060;2024-03-22T12:15:28;100257.73;;;9.77;100.00
43683;BME280;29285;52.128;21.060;2024-03-22T12:20:30;100259.96;;;9.79;100.00
43683;BME280;29285;52.128;21.060;2024-03-22T12:25:31;100250.55;;;9.83;100.00
43683;BME280;29285;52.128;21.060;2024-03-22T12:30:32;100249.81;;;9.86;100.00
43683;BME280;29285;52.128;21.060;2024-03-22T12:35:34;100245.90;;;9.93;100.00
43683;BME280;29285;52.128;21.060;2024-03-22T12:40:35;100227.12;;;9.97;100.00
43683;BME280;29285;52.128;21.060;2024-03-22T12:45:37;100224.30;;;10.00;100.00
43683;BME280;29285;52.128;21.060;2024-03-22T12:50:38;100213.38;;;10.01;100.00
43683;BME280;29285;52.128;21.060;2024-03-22T12:55:40;100200.91;;;10.00;100.00
43683;BME280;29285;52.128;21.060;2024-03-22T13:00:41;100200.59;;;10.08;100.00
43683;BME280;29285;52.128;21.060;2024-03-22T13:05:42;100193.52;;;10.17;100.00
43683;BME280;29285;52.128;21.060;2024-03-22T13:10:44;100180.86;;;10.17;100.00
43683;BME280;29285;52.128;21.060;2024-03-22T13:15:45;100183.77;;;10.19;100.00
43683;BME280;29285;52.128;21.060;2024-03-22T13:20:47;100186.55;;;10.19;100.00
43683;BME280;29285;52.128;21.060;2024-03-22T13:25:48;100181.35;;;10.19;100.00
43683;BME280;29285;52.128;21.060;2024-03-22T13:30:59;100170.76;;;10.20;100.00
43683;BME280;29285;52.128;21.060;2024-03-22T13:36:01;100164.96;;;10.25;100.00
43683;BME280;29285;52.128;21.060;2024-03-22T13:41:03;100155.89;;;10.29;100.00
43683;BME280;29285;52.128;21.060;2024-03-22T13:46:05;100139.23;;;10.29;100.00
43683;BME280;29285;52.128;21.060;2024-03-22T13:51:06;100139.87;;;10.32;100.00
43683;BME280;29285;52.128;21.060;2024-03-22T13:56:07;100133.27;;;10.32;100.00
43683;BME280;29285;52.128;21.060;2024-03-22T14:01:08;100122.72;;;10.41;100.00
43683;BME280;29285;52.128;21.060;2024-03-22T14:06:09;100121.34;;;10.51;100.00
43683;BME280;29285;52.128;21.060;2024-03-22T14:11:10;100116.10;;;10.52;100.00
43683;BME280;29285;52.128;21.060;2024-03-22T14:16:11;100110.26;;;10.39;100.00
43683;BME280;29285;52.128;21.060;2024-03-22T14:21:12;100102.34;;;10.26;100.00
43683;BME280;29285;52.128;21.060;2024-03-22T14:26:20;100097.17;;;10.15;100.00
43683;BME280;29285;52.128;21.060;2024-03-22T14:31:21;100088.48;;;10.17;100.00
43683;BME280;29285;52.128;21.060;2024-03-22T14:36:22;100080.88;;;10.14;100.00
43683;BME280;29285;52.128;21.060;2024-03-22T14:41:23;100080.83;;;10.08;100.00
43683;BME280;29285;52.128;21.060;2024-03-22T14:46:24;100074.34;;;10.02;100.00
43683;BME280;29285;52.128;21.060;2024-03-22T14:51:27;100064.13;;;9.92;100.00
43683;BME280;29285;52.128;21.060;2024-03-22T14:56:28;100060.94;;;9.86;100.00
43683;BME280;29285;52.128;21.060;2024-03-22T15:01:29;100052.11;;;9.85;100.00
43683;BME280;29285;52.128;21.060;2024-03-22T15:06:31;100047.46;;;9.85;100.00
43683;BME280;29285;52.128;21.060;2024-03-22T15:11:32;100029.67;;;9.80;100.00
43683;BME280;29285;52.128;21.060;2024-03-22T15:16:33;100021.56;;;9.79;100.00
43683;BME280;29285;52.128;21.060;2024-03-22T15:21:38;100016.39;;;9.77;100.00
43683;BME280;29285;52.128;21.060;2024-03-22T15:26:39;100011.00;;;9.78;100.00
43683;BME280;29285;52.128;21.060;2024-03-22T15:31:40;100012.55;;;9.78;100.00
43683;BME280;29285;52.128;21.060;2024-03-22T15:36:42;100011.83;;;9.80;100.00
43683;BME280;29285;52.128;21.060;2024-03-22T15:41:43;100011.31;;;9.80;100.00
43683;BME280;29285;52.128;21.060;2024-03-22T15:46:45;100004.96;;;9.77;100.00
43683;BME280;29285;52.128;21.060;2024-03-22T15:51:46;99996.38;;;9.72;100.00
43683;BME280;29285;52.128;21.060;2024-03-22T15:56:47;99987.34;;;9.64;100.00
43683;BME280;29285;52.128;21.060;2024-03-22T16:01:48;99980.54;;;9.57;100.00
43683;BME280;29285;52.128;21.060;2024-03-22T16:06:49;99977.50;;;9.52;100.00
43683;BME280;29285;52.128;21.060;2024-03-22T16:11:50;99970.77;;;9.52;100.00
43683;BME280;29285;52.128;21.060;2024-03-22T16:16:51;99961.77;;;9.52;100.00
43683;BME280;29285;52.128;21.060;2024-03-22T16:21:52;99957.42;;;9.52;100.00
43683;BME280;29285;52.128;21.060;2024-03-22T16:26:53;99956.89;;;9.53;100.00
43683;BME280;29285;52.128;21.060;2024-03-22T16:31:54;99950.66;;;9.53;100.00
43683;BME280;29285;52.128;21.060;2024-03-22T16:36:55;99940.66;;;9.50;100.00
43683;BME280;29285;52.128;21.060;2024-03-22T16:41:56;99936.85;;;9.50;100.00
43683;BME280;29285;52.128;21.060;2024-03-22T16:46:57;99933.89;;;9.51;100.00
43683;BME280;29285;52.128;21.060;2024-03-22T16:51:58;99939.43;;;9.51;100.00
43683;BME280;29285;52.128;21.060;2024-03-22T16:56:59;99939.13;;;9.48;100.00
43683;BME280;29285;52.128;21.060;2024-03-22T17:02:00;99938.98;;;9.47;100.00
43683;BME280;29285;52.128;21.060;2024-03-22T17:07:01;99937.98;;;9.45;100.00
43683;BME280;29285;52.128;21.060;2024-03-22T17:12:03;99935.88;;;9.46;100.00
43683;BME280;29285;52.128;21.060;2024-03-22T17:17:06;99928.09;;;9.46;100.00
43683;BME280;29285;52.128;21.060;2024-03-22T17:22:07;99920.92;;;9.49;100.00
43683;BME280;29285;52.128;21.060;2024-03-22T17:27:08;99920.58;;;9.50;100.00
43683;BME280;29285;52.128;21.060;2024-03-22T17:32:09;99919.68;;;9.51;100.00
43683;BME280;29285;52.128;21.060;2024-03-22T17:37:10;99914.67;;;9.51;100.00
43683;BME280;29285;52.128;21.060;2024-03-22T17:42:13;99910.01;;;9.50;100.00
43683;BME280;29285;52.128;21.060;2024-03-22T17:47:14;99899.59;;;9.51;100.00
43683;BME280;29285;52.128;21.060;2024-03-22T17:52:15;99894.44;;;9.49;100.00
43683;BME280;29285;52.128;21.060;2024-03-22T17:57:16;99892.73;;;9.48;100.00
43683;BME280;29285;52.128;21.060;2024-03-22T18:02:18;99876.83;;;9.48;100.00
43683;BME280;29285;52.128;21.060;2024-03-22T18:07:19;99872.97;;;9.49;100.00
43683;BME280;29285;52.128;21.060;2024-03-22T18:12:20;99871.59;;;9.49;100.00
43683;BME280;29285;52.128;21.060;2024-03-22T18:17:21;99869.50;;;9.50;100.00
43683;BME280;29285;52.128;21.060;2024-03-22T18:22:22;99868.27;;;9.51;100.00
43683;BME280;29285;52.128;21.060;2024-03-22T18:27:24;99866.86;;;9.52;100.00
43683;BME280;29285;52.128;21.060;2024-03-22T18:32:26;99867.53;;;9.52;100.00
43683;BME280;29285;52.128;21.060;2024-03-22T18:37:27;99867.70;;;9.54;100.00
43683;BME280;29285;52.128;21.060;2024-03-22T18:42:28;99865.95;;;9.54;100.00
43683;BME280;29285;52.128;21.060;2024-03-22T18:47:30;99862.14;;;9.55;100.00
43683;BME280;29285;52.128;21.060;2024-03-22T18:52:31;99849.85;;;9.53;100.00
43683;BME280;29285;52.128;21.060;2024-03-22T18:57:32;99841.70;;;9.54;100.00
43683;BME280;29285;52.128;21.060;2024-03-22T19:02:33;99832.71;;;9.54;100.00
43683;BME280;29285;52.128;21.060;2024-03-22T19:07:34;99822.52;;;9.53;100.00
43683;BME280;29285;52.128;21.060;2024-03-22T19:12:35;99815.77;;;9.51;100.00
43683;BME280;29285;52.128;21.060;2024-03-22T19:17:36;99804.51;;;9.52;100.00
43683;BME280;29285;52.128;21.060;2024-03-22T19:22:37;99801.73;;;9.52;100.00
43683;BME280;29285;52.128;21.060;2024-03-22T19:27:38;99794.80;;;9.53;100.00
43683;BME280;29285;52.128;21.060;2024-03-22T19:32:39;99790.78;;;9.55;100.00
43683;BME280;29285;52.128;21.060;2024-03-22T19:37:40;99790.95;;;9.55;100.00
43683;BME280;29285;52.128;21.060;2024-03-22T19:42:41;99793.52;;;9.57;100.00
43683;BME280;29285;52.128;21.060;2024-03-22T19:47:42;99793.11;;;9.59;100.00
43683;BME280;29285;52.128;21.060;2024-03-22T19:52:43;99782.85;;;9.61;100.00
43683;BME280;29285;52.128;21.060;2024-03-22T19:57:44;99777.33;;;9.61;100.00
43683;BME280;29285;52.128;21.060;2024-03-22T20:02:46;99776.51;;;9.59;100.00
43683;BME280;29285;52.128;21.060;2024-03-22T20:07:46;99774.25;;;9.59;100.00
43683;BME280;29285;52.128;21.060;2024-03-22T20:12:48;99774.44;;;9.58;100.00
43683;BME280;29285;52.128;21.060;2024-03-22T20:17:49;99772.20;;;9.57;100.00
43683;BME280;29285;52.128;21.060;2024-03-22T20:22:50;99761.17;;;9.54;100.00
43683;BME280;29285;52.128;21.060;2024-03-22T20:27:52;99761.02;;;9.54;100.00
43683;BME280;29285;52.128;21.060;2024-03-22T20:32:53;99756.65;;;9.55;100.00
43683;BME280;29285;52.128;21.060;2024-03-22T20:37:54;99754.52;;;9.58;100.00
